createdAt,value
2018-05-29T00:00:54.233Z,4.50
2018-05-29T00:03:26.248Z,4.18
2018-05-29T00:05:58.506Z,4.90
2018-05-29T00:08:30.263Z,4.80
2018-05-29T00:11:02.281Z,3.90
2018-05-29T00:13:34.645Z,4.30
2018-05-29T00:18:57.477Z,4.32
2018-05-29T00:21:29.278Z,3.90
2018-05-29T00:24:01.194Z,4.40
2018-05-29T00:26:33.136Z,4.47
2018-05-29T00:29:05.249Z,4.25
2018-05-29T00:31:38.470Z,4.57
2018-05-29T00:36:50.568Z,4.30
2018-05-29T00:39:22.542Z,4.12
2018-05-29T00:41:55.671Z,3.77
2018-05-29T00:47:15.430Z,4.20
2018-05-29T00:49:47.092Z,3.67
2018-05-29T00:52:20.238Z,3.63
2018-05-29T00:55:03.244Z,3.80
2018-05-29T01:01:01.588Z,3.22
2018-05-29T01:03:37.725Z,3.70
2018-05-29T01:06:10.517Z,3.97
2018-05-29T01:08:42.290Z,3.80
2018-05-29T01:12:41.131Z,4.18
2018-05-29T01:15:14.431Z,3.70
2018-05-29T01:17:46.233Z,3.67
2018-05-29T01:20:18.265Z,3.95
2018-05-29T01:22:50.259Z,3.92
2018-05-29T01:25:22.249Z,4.30
2018-05-29T01:27:54.297Z,4.22
2018-05-29T01:30:26.232Z,4.30
2018-05-29T01:32:58.264Z,3.95
2018-05-29T01:35:30.282Z,6.03
2018-05-29T01:38:03.623Z,4.15
2018-05-29T01:40:35.255Z,3.70
2018-05-29T01:43:07.254Z,4.70
2018-05-29T01:45:39.257Z,4.60
2018-05-29T01:48:11.283Z,4.15
2018-05-29T01:50:43.316Z,4.00
2018-05-29T01:53:15.297Z,4.12
2018-05-29T01:55:47.323Z,4.28
2018-05-29T01:58:19.258Z,3.87
2018-05-29T02:00:51.275Z,4.70
2018-05-29T02:03:23.296Z,4.28
2018-05-29T02:05:55.243Z,4.40
2018-05-29T02:08:27.241Z,5.18
2018-05-29T02:11:00.230Z,5.25
2018-05-29T02:13:32.260Z,5.43
2018-05-29T02:18:58.826Z,6.65
2018-05-29T02:24:00.908Z,6.22
2018-05-29T02:26:33.029Z,6.70
2018-05-29T02:31:56.643Z,6.00
2018-05-29T02:34:28.578Z,6.15
2018-05-29T02:37:01.291Z,6.20
2018-05-29T02:39:33.261Z,5.87
2018-05-29T02:42:05.256Z,5.70
2018-05-29T02:47:31.985Z,6.00
2018-05-29T02:50:04.570Z,6.35
2018-05-29T02:55:09.482Z,6.43
2018-05-29T02:57:41.218Z,6.97
2018-05-29T03:00:13.235Z,6.65
2018-05-29T03:02:45.243Z,6.75
2018-05-29T03:05:17.253Z,6.57
2018-05-29T03:07:49.176Z,5.78
2018-05-29T03:10:22.229Z,5.93
2018-05-29T03:12:54.237Z,6.90
2018-05-29T03:15:26.255Z,5.90
2018-05-29T03:17:58.274Z,6.50
2018-05-29T03:20:30.248Z,6.73
2018-05-29T03:23:02.222Z,6.25
2018-05-29T03:25:34.278Z,7.57
2018-05-29T03:28:06.251Z,7.55
2018-05-29T03:30:38.247Z,6.85
2018-05-29T03:33:10.253Z,7.00
2018-05-29T03:35:42.287Z,6.93
2018-05-29T03:38:14.232Z,6.43
2018-05-29T03:40:46.258Z,7.25
2018-05-29T03:43:18.248Z,7.65
2018-05-29T03:45:50.237Z,7.62
2018-05-29T03:48:22.505Z,6.82
2018-05-29T03:50:55.508Z,6.85
2018-05-29T03:53:27.418Z,7.43
2018-05-29T03:55:59.270Z,7.78
2018-05-29T03:58:31.246Z,7.32
2018-05-29T04:01:03.308Z,7.30
2018-05-29T04:03:35.260Z,8.20
2018-05-29T04:06:07.233Z,8.13
2018-05-29T04:08:39.260Z,7.43
2018-05-29T04:11:11.262Z,7.77
2018-05-29T04:13:43.277Z,6.97
2018-05-29T04:16:15.270Z,7.57
2018-05-29T04:18:47.238Z,8.00
2018-05-29T04:21:19.445Z,8.95
2018-05-29T04:23:51.259Z,7.87
2018-05-29T04:26:23.226Z,8.65
2018-05-29T04:28:55.233Z,7.57
2018-05-29T04:31:27.289Z,8.05
2018-05-29T04:33:59.270Z,7.62
2018-05-29T04:36:31.273Z,7.60
2018-05-29T04:39:03.280Z,7.30
2018-05-29T04:41:35.299Z,7.78
2018-05-29T04:44:07.326Z,7.47
2018-05-29T04:46:39.256Z,8.05
2018-05-29T04:49:11.499Z,8.70
2018-05-29T04:51:43.547Z,8.00
2018-05-29T04:54:15.586Z,9.15
2018-05-29T04:56:48.436Z,9.77
2018-05-29T04:59:20.634Z,9.73
2018-05-29T05:04:23.543Z,8.70
2018-05-29T05:09:27.545Z,9.10
2018-05-29T05:11:59.546Z,9.00
2018-05-29T05:17:02.547Z,8.80
2018-05-29T05:19:35.500Z,8.48
2018-05-29T05:27:10.835Z,8.63
2018-05-29T05:29:43.270Z,8.77
2018-05-29T05:32:15.544Z,8.33
2018-05-29T05:34:47.598Z,8.60
2018-05-29T05:39:51.267Z,8.45
2018-05-29T05:42:23.251Z,9.27
2018-05-29T05:44:55.239Z,8.52
2018-05-29T05:47:27.718Z,8.95
2018-05-29T05:51:04.241Z,8.27
2018-05-29T05:53:36.245Z,7.85
2018-05-29T05:56:10.248Z,7.50
2018-05-29T05:58:42.235Z,8.30
2018-05-29T06:01:14.221Z,8.35
2018-05-29T06:03:46.235Z,8.73
2018-05-29T06:06:18.218Z,9.60
2018-05-29T06:08:50.243Z,9.68
2018-05-29T06:11:22.265Z,10.48
2018-05-29T06:16:14.710Z,9.25
2018-05-29T06:18:46.573Z,8.68
2018-05-29T06:23:49.219Z,7.80
2018-05-29T06:26:21.234Z,8.48
2018-05-29T06:28:53.224Z,8.47
2018-05-29T06:31:25.235Z,8.63
2018-05-29T06:33:57.237Z,7.83
2018-05-29T06:36:29.491Z,7.97
2018-05-29T06:39:01.296Z,7.65
2018-05-29T06:41:33.319Z,7.22
2018-05-29T06:44:05.583Z,8.00
2018-05-29T06:49:07.968Z,7.93
2018-05-29T06:51:40.289Z,7.50
2018-05-29T06:54:12.506Z,8.60
2018-05-29T06:56:44.482Z,8.23
2018-05-29T06:59:16.269Z,8.15
2018-05-29T07:01:48.290Z,8.50
2018-05-29T07:06:51.547Z,8.73
2018-05-29T07:09:32.530Z,8.20
2018-05-29T07:14:35.632Z,8.38
2018-05-29T07:17:07.549Z,7.80
2018-05-29T07:19:39.616Z,8.27
2018-05-29T07:29:46.052Z,7.53
2018-05-29T07:32:18.523Z,8.97
2018-05-29T07:37:03.630Z,8.53
2018-05-29T07:39:42.641Z,8.40
2018-05-29T07:42:22.515Z,8.18
2018-05-29T07:55:53.269Z,8.18
2018-05-29T07:58:25.539Z,7.73
2018-05-29T08:03:29.082Z,8.55
2018-05-29T08:06:01.549Z,8.47
2018-05-29T08:11:05.555Z,7.80
2018-05-29T08:13:38.517Z,7.55
2018-05-29T08:16:10.530Z,8.38
2018-05-29T08:18:42.531Z,8.23
2018-05-29T08:21:14.577Z,7.75
2018-05-29T08:23:46.528Z,7.05
2018-05-29T08:26:18.642Z,7.80
2018-05-29T08:28:50.548Z,8.00
2018-05-29T08:31:22.307Z,7.40
2018-05-29T08:33:54.515Z,8.00
2018-05-29T08:36:26.248Z,7.97
2018-05-29T08:38:58.250Z,7.35
2018-05-29T08:41:30.490Z,8.45
2018-05-29T08:44:02.515Z,7.40
2018-05-29T08:46:34.617Z,8.98
2018-05-29T08:51:38.614Z,7.47
2018-05-29T08:54:10.535Z,7.85
2018-05-29T08:59:13.499Z,8.87
2018-05-29T09:06:07.717Z,9.13
2018-05-29T09:08:39.569Z,8.05
2018-05-29T09:13:41.590Z,8.23
2018-05-29T09:21:24.625Z,9.70
2018-05-29T09:26:28.630Z,8.77
2018-05-29T09:34:38.896Z,8.67
2018-05-29T09:37:10.626Z,8.20
2018-05-29T09:39:42.555Z,8.50
2018-05-29T09:42:14.630Z,8.77
2018-05-29T09:44:46.497Z,8.65
2018-05-29T09:49:49.516Z,8.25
2018-05-29T09:55:51.893Z,8.43
2018-05-29T09:58:23.630Z,7.70
2018-05-29T10:00:56.503Z,8.50
2018-05-29T10:08:21.090Z,8.30
2018-05-29T10:10:53.536Z,8.13
2018-05-29T10:18:26.734Z,8.20
2018-05-29T10:20:58.631Z,8.00
2018-05-29T10:26:01.542Z,8.50
2018-05-29T10:31:04.258Z,8.00
2018-05-29T10:33:36.270Z,8.53
2018-05-29T10:36:08.361Z,8.73
2018-05-29T10:38:41.758Z,8.90
2018-05-29T10:41:13.616Z,9.07
2018-05-29T10:51:37.528Z,10.00
2018-05-29T10:54:09.536Z,9.85
2018-05-29T10:56:42.285Z,9.43
2018-05-29T10:59:14.577Z,8.57
2018-05-29T11:01:46.652Z,7.93
2018-05-29T11:04:18.551Z,10.30
2018-05-29T11:09:22.554Z,8.38
2018-05-29T11:14:28.620Z,9.10
2018-05-29T11:19:33.529Z,8.50
2018-05-29T11:22:47.508Z,7.80
2018-05-29T11:26:17.942Z,8.48
2018-05-29T11:28:50.520Z,8.60
2018-05-29T11:32:15.599Z,7.97
2018-05-29T11:37:18.653Z,9.68
2018-05-29T11:44:52.612Z,9.10
2018-05-29T11:49:55.532Z,9.53
2018-05-29T11:52:27.537Z,10.93
2018-05-29T11:57:30.255Z,9.70
2018-05-29T12:00:02.282Z,10.38
2018-05-29T12:02:34.336Z,9.10
2018-05-29T12:05:07.559Z,8.55
2018-05-29T12:10:10.230Z,9.90
2018-05-29T12:12:43.523Z,8.55
2018-05-29T12:15:15.253Z,8.93
2018-05-29T12:17:47.249Z,9.10
2018-05-29T12:20:19.228Z,8.25
2018-05-29T12:22:51.225Z,9.02
2018-05-29T12:25:23.237Z,9.23
2018-05-29T12:27:55.246Z,8.90
2018-05-29T12:30:28.575Z,8.68
2018-05-29T12:35:32.579Z,9.23
2018-05-29T12:40:35.233Z,8.63
2018-05-29T12:44:48.703Z,8.53
2018-05-29T12:47:20.558Z,7.53
2018-05-29T12:52:12.855Z,9.38
2018-05-29T12:54:46.713Z,7.60
2018-05-29T12:57:18.600Z,9.35
2018-05-29T13:05:09.882Z,10.40
2018-05-29T13:07:41.566Z,8.77
2018-05-29T13:10:13.259Z,8.83
2018-05-29T13:12:45.253Z,10.35
2018-05-29T13:15:18.273Z,7.93
2018-05-29T13:17:50.252Z,10.80
2018-05-29T13:20:22.253Z,9.48
2018-05-29T13:22:55.874Z,9.23
2018-05-29T13:27:03.299Z,9.43
2018-05-29T13:29:35.278Z,8.47
2018-05-29T13:32:07.509Z,9.02
2018-05-29T13:34:39.597Z,9.90
2018-05-29T13:37:12.769Z,10.10
2018-05-29T13:39:46.536Z,10.85
2018-05-29T13:42:18.264Z,9.93
2018-05-29T13:44:50.289Z,9.95
2018-05-29T13:47:24.504Z,9.80
2018-05-29T13:49:56.251Z,9.37
2018-05-29T13:52:28.274Z,10.02
2018-05-29T13:55:01.844Z,8.80
2018-05-29T13:58:17.241Z,9.25
2018-05-29T14:00:49.239Z,9.48
2018-05-29T14:03:21.294Z,10.60
2018-05-29T14:05:53.259Z,9.07
2018-05-29T14:08:25.287Z,9.10
2018-05-29T14:10:57.270Z,8.38
2018-05-29T14:13:30.580Z,9.55
2018-05-29T14:18:34.489Z,8.73
2018-05-29T14:21:06.264Z,8.32
2018-05-29T14:23:38.239Z,8.45
2018-05-29T14:26:10.252Z,9.77
2018-05-29T14:28:42.234Z,9.50
2018-05-29T14:34:05.803Z,9.54
2018-05-29T14:36:37.575Z,9.45
2018-05-29T14:41:40.231Z,9.33
2018-05-29T14:44:12.272Z,9.00
2018-05-29T14:46:43.909Z,9.10
2018-05-29T14:49:15.554Z,9.23
2018-05-29T14:51:47.416Z,10.23
2018-05-29T14:54:19.262Z,10.18
2018-05-29T14:56:51.241Z,11.02
2018-05-29T14:59:24.883Z,10.05
2018-05-29T15:01:58.662Z,11.40
2018-05-29T15:05:17.216Z,10.40
2018-05-29T15:08:34.247Z,10.60
2018-05-29T15:11:07.701Z,10.40
2018-05-29T15:13:41.565Z,10.15
2018-05-29T15:18:47.690Z,10.38
2018-05-29T15:21:21.566Z,9.82
2018-05-29T15:23:56.225Z,10.76
2018-05-29T15:26:30.559Z,10.95
2018-05-29T15:29:04.602Z,11.10
2018-05-29T15:34:09.732Z,10.90
2018-05-29T15:36:43.744Z,8.75
2018-05-29T15:39:17.551Z,9.77
2018-05-29T15:44:25.223Z,8.30
2018-05-29T15:46:58.753Z,9.25
2018-05-29T15:49:32.214Z,9.40
2018-05-29T15:52:06.639Z,8.90
2018-05-29T15:54:40.259Z,10.88
2018-05-29T15:57:13.545Z,9.65
2018-05-29T15:59:47.446Z,10.13
2018-05-29T16:02:20.777Z,10.82
2018-05-29T16:04:54.326Z,8.40
2018-05-29T16:07:28.818Z,9.50
2018-05-29T16:10:02.220Z,8.88
2018-05-29T16:12:35.482Z,8.15
2018-05-29T16:15:08.489Z,8.85
2018-05-29T16:17:41.776Z,9.35
2018-05-29T16:20:15.527Z,8.90
2018-05-29T16:22:48.522Z,9.90
2018-05-29T16:25:21.531Z,9.52
2018-05-29T16:27:54.753Z,8.63
2018-05-29T16:30:28.962Z,8.38
2018-05-29T16:33:02.775Z,7.93
2018-05-29T16:35:36.553Z,8.50
2018-05-29T16:40:41.750Z,7.90
2018-05-29T16:43:15.599Z,9.25
2018-05-29T16:48:20.908Z,7.35
2018-05-29T16:50:54.253Z,10.13
2018-05-29T16:53:27.511Z,8.65
2018-05-29T16:56:00.855Z,8.00
2018-05-29T16:58:34.509Z,8.45
2018-05-29T17:01:07.493Z,7.25
2018-05-29T17:03:40.324Z,9.57
2018-05-29T17:06:14.540Z,8.82
2018-05-29T17:08:47.859Z,8.83
2018-05-29T17:13:54.534Z,10.20
2018-05-29T17:16:27.611Z,9.70
2018-05-29T17:21:33.529Z,11.07
2018-05-29T17:24:07.676Z,9.40
2018-05-29T17:29:12.752Z,9.73
2018-05-29T17:31:46.282Z,10.30
2018-05-29T17:36:51.543Z,10.52
2018-05-29T17:39:25.607Z,9.45
2018-05-29T17:41:58.621Z,8.85
2018-05-29T17:46:14.627Z,9.23
2018-05-29T17:51:19.923Z,9.30
2018-05-29T17:53:52.581Z,9.73
2018-05-29T17:59:41.594Z,9.43
2018-05-29T18:04:47.509Z,9.52
2018-05-29T18:09:02.849Z,9.70
2018-05-29T18:11:36.695Z,8.75
2018-05-29T18:14:10.557Z,8.40
2018-05-29T18:19:16.573Z,8.50
2018-05-29T18:24:22.661Z,9.30
2018-05-29T18:29:28.484Z,8.52
2018-05-29T18:32:02.815Z,8.77
2018-05-29T18:34:36.257Z,8.77
2018-05-29T18:37:09.786Z,8.48
2018-05-29T18:39:43.799Z,7.70
2018-05-29T18:42:17.581Z,8.30
2018-05-29T18:47:23.654Z,7.40
2018-05-29T18:49:56.909Z,7.75
2018-05-29T18:52:30.813Z,8.15
2018-05-29T18:55:04.590Z,8.27
2018-05-29T18:57:38.496Z,8.00
2018-05-29T19:00:11.507Z,8.27
2018-05-29T19:02:45.593Z,10.15
2018-05-29T19:08:02.610Z,9.55
2018-05-29T19:15:40.801Z,12.10
2018-05-29T19:18:14.818Z,10.15
2018-05-29T19:20:48.662Z,7.90
2018-05-29T19:23:22.667Z,8.05
2018-05-29T19:28:27.679Z,7.43
2018-05-29T19:31:02.247Z,7.40
2018-05-29T19:33:36.567Z,7.57
2018-05-29T19:38:42.262Z,9.20
2018-05-29T19:41:15.508Z,8.30
2018-05-29T19:43:48.823Z,7.47
2018-05-29T19:46:22.664Z,7.57
2018-05-29T19:48:57.101Z,6.75
2018-05-29T19:51:30.256Z,7.25
2018-05-29T19:54:04.614Z,6.45
2018-05-29T19:59:09.610Z,7.72
2018-05-29T20:04:15.582Z,7.97
2018-05-29T20:09:21.953Z,6.95
2018-05-29T20:11:55.586Z,7.90
2018-05-29T20:14:29.993Z,8.13
2018-05-29T20:19:37.373Z,7.80
2018-05-29T20:22:10.293Z,8.17
2018-05-29T20:24:43.763Z,8.53
2018-05-29T20:34:54.280Z,7.80
2018-05-29T20:37:28.604Z,8.50
2018-05-29T20:40:02.622Z,8.27
2018-05-29T20:42:35.822Z,8.30
2018-05-29T20:47:41.668Z,8.40
2018-05-29T20:55:31.934Z,9.10
2018-05-29T21:05:43.702Z,8.97
2018-05-29T21:10:49.412Z,9.47
2018-05-29T21:13:23.009Z,10.17
2018-05-29T21:15:56.491Z,8.93
2018-05-29T21:18:30.482Z,9.57
2018-05-29T21:21:03.483Z,8.80
2018-05-29T21:23:36.952Z,9.07
2018-05-29T21:26:10.582Z,9.77
2018-05-29T21:33:48.636Z,9.30
2018-05-29T21:38:54.591Z,8.53
2018-05-29T21:46:32.769Z,9.00
2018-05-29T21:56:41.573Z,8.53
2018-05-29T22:04:19.078Z,8.70
2018-05-29T22:06:52.902Z,8.93
2018-05-29T22:11:59.498Z,10.20
2018-05-29T22:14:33.115Z,8.53
2018-05-29T22:17:06.898Z,9.10
2018-05-29T22:20:58.611Z,9.68
2018-05-29T22:26:04.711Z,8.57
2018-05-29T22:28:38.212Z,9.13
2018-05-29T22:31:11.231Z,8.05
2018-05-29T22:33:44.697Z,11.00
2018-05-29T22:36:18.552Z,11.70
2018-05-29T22:41:24.070Z,10.63
2018-05-29T22:43:57.879Z,8.50
2018-05-29T22:46:30.879Z,11.00
2018-05-29T22:49:03.509Z,11.68
2018-05-29T22:51:36.687Z,10.60
2018-05-29T22:54:10.242Z,12.52
2018-05-29T22:56:44.248Z,11.95
2018-05-29T22:59:17.853Z,10.38
2018-05-29T23:01:50.469Z,9.20
2018-05-29T23:04:23.517Z,8.38
2018-05-29T23:06:56.492Z,8.20
2018-05-29T23:09:29.479Z,8.83
2018-05-29T23:12:03.579Z,8.33
2018-05-29T23:19:40.081Z,8.23
2018-05-29T23:22:12.227Z,8.48
2018-05-29T23:24:44.225Z,7.50
2018-05-29T23:27:16.120Z,8.13
2018-05-29T23:29:48.211Z,8.27
2018-05-29T23:32:20.103Z,8.23
2018-05-29T23:37:45.780Z,8.15
2018-05-29T23:40:17.571Z,7.80
2018-05-29T23:42:49.526Z,8.10
2018-05-29T23:45:22.473Z,8.20
2018-05-29T23:47:54.344Z,7.45
2018-05-29T23:50:26.245Z,8.20
2018-05-29T23:52:58.215Z,7.80
2018-05-29T23:55:30.228Z,8.60
2018-05-29T23:58:02.240Z,8.27
